Time;durP1;ratioP1;P1;durP2;ratioP2;P2;SDS_P1;SDS_P2;PMS_P1;PMS_P2;Temp;Humidity;BMP_temperature;BMP_pressure;BME280_temperature;BME280_humidity;BME280_pressure;Samples;Min_cycle;Max_cycle;Signal;HPM_P1;HPM_P2
2023/01/31 00:01:06;;;;;;;4.03;0.88;;;18.50;58.60;;;;;;5037286;28;20140;-72
2023/01/31 00:03:33;;;;;;;2.13;0.30;;;18.50;58.60;;;;;;5033991;28;20045;-73
2023/01/31 00:06:12;;;;;;;4.38;1.40;;;18.50;58.60;;;;;;5031208;28;20490;-73
2023/01/31 00:08:39;;;;;;;5.03;1.92;;;18.50;58.60;;;;;;5030889;28;20049;-72
2023/01/31 00:11:06;;;;;;;4.68;1.52;;;18.40;58.60;;;;;;5031581;28;20050;-72
2023/01/31 00:13:33;;;;;;;3.75;1.67;;;18.40;58.60;;;;;;5031271;28;20072;-73
2023/01/31 00:16:00;;;;;;;2.25;0.40;;;18.40;58.60;;;;;;5048923;28;20375;-72
2023/01/31 00:18:27;;;;;;;2.97;0.77;;;18.40;58.60;;;;;;5051334;28;20391;-72
2023/01/31 00:20:54;;;;;;;3.95;1.33;;;18.30;58.50;;;;;;5048309;28;20045;-72
2023/01/31 00:23:23;;;;;;;2.67;0.43;;;18.40;58.50;;;;;;5062542;28;20406;-72
2023/01/31 00:25:50;;;;;;;4.28;1.10;;;18.30;58.50;;;;;;5050940;28;20049;-72
2023/01/31 00:28:17;;;;;;;3.15;1.10;;;18.30;58.50;;;;;;5053109;28;20683;-73
2023/01/31 00:30:43;;;;;;;4.05;1.17;;;18.30;59.20;;;;;;5053308;28;20056;-73
2023/01/31 00:33:10;;;;;;;6.47;1.27;;;18.30;58.50;;;;;;5054456;28;20049;-73
2023/01/31 00:35:40;;;;;;;3.40;1.20;;;18.30;58.50;;;;;;5054900;28;20045;-73
2023/01/31 00:38:07;;;;;;;3.85;0.77;;;18.30;58.50;;;;;;5052626;28;20156;-73
2023/01/31 00:40:35;;;;;;;5.28;1.65;;;18.30;58.50;;;;;;5041517;28;20053;-72
2023/01/31 00:43:02;;;;;;;3.85;0.70;;;18.30;58.50;;;;;;5034374;28;20053;-72
2023/01/31 00:45:29;;;;;;;3.85;0.80;;;18.20;58.40;;;;;;5034779;28;20057;-72
2023/01/31 00:47:56;;;;;;;4.00;0.50;;;18.20;58.50;;;;;;5062002;28;20052;-72
2023/01/31 00:50:23;;;;;;;3.53;1.10;;;18.20;58.50;;;;;;5047381;28;20053;-72
2023/01/31 00:52:50;;;;;;;3.65;1.35;;;18.20;58.50;;;;;;5034079;28;20057;-72
2023/01/31 00:55:17;;;;;;;2.78;0.40;;;18.20;58.50;;;;;;5035188;28;20049;-73
2023/01/31 00:57:45;;;;;;;3.08;0.90;;;18.20;58.50;;;;;;5053230;28;20060;-72
2023/01/31 01:00:14;;;;;;;3.75;1.50;;;18.20;58.50;;;;;;5033567;28;20050;-73
2023/01/31 01:02:41;;;;;;;4.40;1.00;;;18.20;58.50;;;;;;5034088;28;20049;-72
2023/01/31 01:05:08;;;;;;;4.80;1.20;;;18.20;58.50;;;;;;5043224;28;20052;-72
2023/01/31 01:07:35;;;;;;;2.58;0.50;;;18.10;58.50;;;;;;5053350;28;20041;-72
2023/01/31 01:10:03;;;;;;;3.40;1.30;;;18.10;58.50;;;;;;5052966;28;20045;-72
2023/01/31 01:12:30;;;;;;;3.50;1.58;;;18.10;58.70;;;;;;5034093;28;20045;-73
2023/01/31 01:14:58;;;;;;;4.85;1.35;;;18.10;58.50;;;;;;5053823;28;20048;-72
2023/01/31 01:17:25;;;;;;;2.83;0.40;;;18.10;58.40;;;;;;5067748;28;20055;-72
2023/01/31 01:19:52;;;;;;;4.28;0.88;;;18.10;58.50;;;;;;5039567;28;20564;-72
2023/01/31 01:22:19;;;;;;;4.65;1.17;;;18.10;58.40;;;;;;5036685;28;20052;-73
2023/01/31 01:24:46;;;;;;;2.70;1.00;;;18.00;58.50;;;;;;5052648;28;20475;-73
2023/01/31 01:27:13;;;;;;;4.45;1.33;;;18.00;58.40;;;;;;5052248;28;20045;-72
2023/01/31 01:29:40;;;;;;;2.53;0.45;;;18.00;58.40;;;;;;5052661;28;20490;-72
2023/01/31 01:32:08;;;;;;;4.38;0.50;;;18.00;58.40;;;;;;5038436;28;20041;-72
2023/01/31 01:34:36;;;;;;;2.60;0.50;;;18.00;58.40;;;;;;5033544;28;20437;-72
2023/01/31 01:37:08;;;;;;;4.25;1.10;;;18.00;58.50;;;;;;5033308;28;20132;-72
2023/01/31 01:39:35;;;;;;;4.97;1.15;;;18.00;58.40;;;;;;5032178;28;20085;-72
2023/01/31 01:42:03;;;;;;;3.00;1.27;;;18.00;58.40;;;;;;5046651;28;20052;-72
2023/01/31 01:44:48;;;;;;;3.45;1.15;;;18.00;58.40;;;;;;5053377;28;20049;-72
2023/01/31 01:47:33;;;;;;;5.88;1.45;;;18.00;58.60;;;;;;5053730;28;20052;-73
2023/01/31 01:50:02;;;;;;;3.85;1.40;;;18.00;58.40;;;;;;5052179;28;20053;-72
2023/01/31 01:52:32;;;;;;;3.33;0.32;;;18.00;58.30;;;;;;5035238;28;20056;-73
2023/01/31 01:55:03;;;;;;;3.85;0.43;;;18.00;58.30;;;;;;5033178;28;20449;-72
2023/01/31 01:57:35;;;;;;;3.72;1.08;;;18.00;58.20;;;;;;5033325;28;20056;-72
2023/01/31 02:00:09;;;;;;;2.55;1.15;;;18.00;58.20;;;;;;5031744;28;20052;-72
2023/01/31 02:02:38;;;;;;;2.72;0.30;;;18.00;58.10;;;;;;5048851;28;20056;-72
2023/01/31 02:05:06;;;;;;;3.42;0.70;;;18.10;58.10;;;;;;5052965;28;20406;-72
2023/01/31 02:07:33;;;;;;;3.30;1.13;;;18.20;58.00;;;;;;5040521;28;20099;-73
2023/01/31 02:10:06;;;;;;;3.33;0.93;;;18.20;58.00;;;;;;5032321;28;20115;-72
2023/01/31 02:12:34;;;;;;;4.63;1.17;;;18.30;57.90;;;;;;5038977;28;20517;-73
2023/01/31 02:15:01;;;;;;;3.17;1.02;;;18.30;57.70;;;;;;5031966;28;20061;-72
2023/01/31 02:17:29;;;;;;;2.92;0.68;;;18.40;57.70;;;;;;5031917;28;20056;-73
2023/01/31 02:20:09;;;;;;;4.55;1.17;;;18.50;57.60;;;;;;5031544;28;20050;-73
2023/01/31 02:22:42;;;;;;;4.82;1.08;;;18.50;57.50;;;;;;5033504;28;20049;-72
2023/01/31 02:25:46;;;;;;;2.72;1.05;;;18.60;57.30;;;;;;5044659;28;20048;-72
2023/01/31 02:29:11;;;;;;;2.85;0.98;;;18.70;57.20;;;;;;5051824;28;20064;-72
2023/01/31 02:32:14;;;;;;;3.15;1.15;;;18.80;57.80;;;;;;4971599;28;20059;-73
2023/01/31 02:34:50;;;;;;;4.78;0.50;;;18.90;56.90;;;;;;5046209;28;20041;-73
2023/01/31 02:37:25;;;;;;;3.42;0.95;;;19.00;56.70;;;;;;5041276;28;20050;-73
2023/01/31 02:40:01;;;;;;;4.13;1.85;;;19.10;56.70;;;;;;5032388;28;20049;-73
2023/01/31 02:42:33;;;;;;;;;;;19.10;56.60;;;;;;5046726;28;20087;-72
2023/01/31 02:45:08;;;;;;;5.05;0.55;;;19.10;56.70;;;;;;5045322;28;20290;-72
2023/01/31 02:47:50;;;;;;;3.95;0.93;;;19.10;56.50;;;;;;5035182;28;20053;-73
2023/01/31 02:50:26;;;;;;;3.60;1.05;;;19.10;56.50;;;;;;5044713;28;20092;-73
2023/01/31 02:52:57;;;;;;;;;;;19.20;56.60;;;;;;5051619;28;20052;-72
2023/01/31 02:58:16;;;;;;;2.95;0.40;;;19.10;56.60;;;;;;5032416;28;20041;-72
2023/01/31 03:00:45;;;;;;;3.40;1.25;;;19.10;56.60;;;;;;5032710;28;20514;-73
2023/01/31 03:03:20;;;;;;;2.20;0.73;;;19.10;56.70;;;;;;5052000;28;20056;-73
2023/01/31 03:06:34;;;;;;;3.30;0.82;;;19.00;56.70;;;;;;5040444;28;20396;-72
2023/01/31 03:09:08;;;;;;;2.75;0.38;;;19.00;56.70;;;;;;5030705;28;20076;-73
2023/01/31 03:11:40;;;;;;;4.00;1.13;;;19.00;56.80;;;;;;5044766;28;20049;-73
2023/01/31 03:14:19;;;;;;;4.93;1.10;;;18.90;56.80;;;;;;5051732;28;20056;-73
2023/01/31 03:19:46;;;;;;;3.35;1.05;;;18.90;57.00;;;;;;5031650;28;20056;-73
2023/01/31 03:22:18;;;;;;;2.45;0.30;;;18.80;57.00;;;;;;5049080;28;20465;-72
2023/01/31 03:24:47;;;;;;;3.55;1.40;;;18.80;57.00;;;;;;5050694;28;20056;-73
2023/01/31 03:27:15;;;;;;;2.95;0.43;;;18.80;57.10;;;;;;5031518;28;20057;-73
2023/01/31 03:29:43;;;;;;;1.98;0.88;;;18.80;57.10;;;;;;5033268;28;20050;-72
2023/01/31 03:32:16;;;;;;;3.22;0.70;;;18.70;57.80;;;;;;5060993;28;20053;-72
2023/01/31 03:34:43;;;;;;;3.53;1.10;;;18.70;57.10;;;;;;5041023;28;20052;-72
2023/01/31 03:37:16;;;;;;;4.28;0.45;;;18.60;57.10;;;;;;5031391;28;20053;-73
2023/01/31 03:39:49;;;;;;;3.75;0.88;;;18.60;57.20;;;;;;5032344;28;20099;-72
2023/01/31 03:42:23;;;;;;;1.70;0.20;;;18.50;57.90;;;;;;5049847;28;20421;-72
2023/01/31 03:44:55;;;;;;;2.85;0.73;;;18.50;57.30;;;;;;5044091;28;20446;-73
2023/01/31 03:47:26;;;;;;;1.80;0.73;;;18.50;57.40;;;;;;5031149;28;20052;-72
2023/01/31 03:49:56;;;;;;;2.15;0.30;;;18.40;57.30;;;;;;5031591;28;20049;-72
2023/01/31 03:52:30;;;;;;;3.17;0.40;;;18.40;57.40;;;;;;5031245;28;20053;-73
2023/01/31 03:55:03;;;;;;;3.92;0.95;;;18.40;57.40;;;;;;5044888;28;20053;-72
2023/01/31 03:57:34;;;;;;;4.47;1.10;;;18.30;57.40;;;;;;5071148;28;20131;-73
2023/01/31 04:00:04;;;;;;;3.08;0.95;;;18.30;57.50;;;;;;5046883;28;20529;-72
2023/01/31 04:02:35;;;;;;;2.78;0.90;;;18.30;57.50;;;;;;5032098;28;20045;-73
2023/01/31 04:05:07;;;;;;;4.22;1.17;;;18.30;57.60;;;;;;5035933;28;20502;-72
2023/01/31 04:07:36;;;;;;;2.50;0.47;;;18.20;57.50;;;;;;5054020;28;20493;-72
2023/01/31 04:10:08;;;;;;;3.05;0.98;;;18.20;57.60;;;;;;5045172;28;20046;-72
2023/01/31 04:12:36;;;;;;;2.75;0.95;;;18.20;57.60;;;;;;5037268;28;20049;-72
2023/01/31 04:15:04;;;;;;;5.10;1.50;;;18.20;57.60;;;;;;5035081;28;20053;-72
2023/01/31 04:17:32;;;;;;;4.85;0.30;;;18.10;57.60;;;;;;5050972;28;20057;-73
2023/01/31 04:19:59;;;;;;;2.83;0.63;;;18.20;57.60;;;;;;5054771;28;20430;-72
2023/01/31 04:22:26;;;;;;;2.08;0.38;;;18.10;57.70;;;;;;5043699;28;20056;-73
2023/01/31 04:24:54;;;;;;;3.10;0.90;;;18.10;57.70;;;;;;5035086;28;20061;-73
2023/01/31 04:27:21;;;;;;;2.92;0.90;;;18.10;57.70;;;;;;5035105;28;20143;-72
2023/01/31 04:29:48;;;;;;;2.75;0.40;;;18.00;57.70;;;;;;5034791;28;20049;-73
2023/01/31 04:32:15;;;;;;;3.67;0.43;;;18.00;57.70;;;;;;5034679;28;20049;-72
2023/01/31 04:34:42;;;;;;;3.33;0.77;;;18.00;57.70;;;;;;5034787;28;20049;-72
2023/01/31 04:37:09;;;;;;;3.55;0.47;;;18.00;57.60;;;;;;5034885;28;20046;-72
2023/01/31 04:39:36;;;;;;;2.90;0.80;;;18.00;57.60;;;;;;5034907;28;20064;-72
2023/01/31 04:42:05;;;;;;;3.10;0.80;;;18.10;57.70;;;;;;5033432;28;20076;-72
2023/01/31 04:44:32;;;;;;;2.45;1.40;;;18.10;57.60;;;;;;5036962;28;20045;-72
2023/01/31 04:46:59;;;;;;;2.80;0.98;;;18.10;57.50;;;;;;5053604;28;20061;-72
2023/01/31 04:49:26;;;;;;;2.58;1.23;;;18.20;57.40;;;;;;5053174;28;20053;-72
2023/01/31 04:51:53;;;;;;;2.67;1.00;;;18.20;57.40;;;;;;5053147;28;20080;-72
2023/01/31 04:54:20;;;;;;;2.85;0.82;;;18.20;57.30;;;;;;5054173;28;20068;-73
2023/01/31 04:56:47;;;;;;;3.55;0.50;;;18.30;57.20;;;;;;5053250;28;20049;-72
2023/01/31 04:59:15;;;;;;;2.80;0.25;;;18.40;57.10;;;;;;5054107;28;20049;-73
2023/01/31 05:01:42;;;;;;;3.92;0.68;;;18.40;57.00;;;;;;5034249;28;20099;-72
2023/01/31 05:04:09;;;;;;;4.07;0.90;;;18.50;57.00;;;;;;5032935;28;20053;-72
2023/01/31 05:06:36;;;;;;;2.78;1.10;;;18.60;56.80;;;;;;5032929;28;20055;-72
2023/01/31 05:09:03;;;;;;;4.25;0.20;;;18.60;56.60;;;;;;5032720;28;20056;-72
2023/01/31 05:11:30;;;;;;;2.85;0.95;;;18.70;56.50;;;;;;5032566;28;20064;-73
2023/01/31 05:13:57;;;;;;;2.20;0.80;;;18.80;56.50;;;;;;5036059;28;20056;-72
2023/01/31 05:16:25;;;;;;;2.97;0.90;;;18.90;56.40;;;;;;5038182;28;20057;-73
2023/01/31 05:18:52;;;;;;;2.55;1.13;;;18.90;56.20;;;;;;5033006;28;20049;-72
2023/01/31 05:21:19;;;;;;;2.40;1.05;;;19.00;56.20;;;;;;5032606;28;20095;-73
2023/01/31 05:23:46;;;;;;;2.92;1.08;;;19.10;56.80;;;;;;5031649;28;20057;-73
2023/01/31 05:26:13;;;;;;;2.67;0.75;;;19.20;56.00;;;;;;5031558;28;20049;-72
2023/01/31 05:28:40;;;;;;;2.45;0.73;;;19.20;55.90;;;;;;5036884;28;20049;-73
2023/01/31 05:31:08;;;;;;;2.70;0.82;;;19.20;55.80;;;;;;5051471;28;20071;-73
2023/01/31 05:33:36;;;;;;;2.08;0.40;;;19.30;55.80;;;;;;5051529;28;20049;-73
2023/01/31 05:36:04;;;;;;;1.95;0.30;;;19.30;55.80;;;;;;5052955;28;20049;-72
2023/01/31 05:38:31;;;;;;;3.08;0.38;;;19.30;55.80;;;;;;5051135;28;20048;-72
2023/01/31 05:40:58;;;;;;;2.83;0.43;;;19.30;55.80;;;;;;5042849;28;20049;-72
2023/01/31 05:43:25;;;;;;;2.47;0.70;;;19.20;55.80;;;;;;5032811;28;20060;-73
2023/01/31 05:45:52;;;;;;;2.78;1.05;;;19.20;55.90;;;;;;5051057;28;20055;-72
2023/01/31 05:48:19;;;;;;;4.03;1.00;;;19.20;55.90;;;;;;5046828;28;20046;-73
2023/01/31 05:50:49;;;;;;;3.20;1.02;;;19.20;56.10;;;;;;5032066;28;20060;-72
2023/01/31 05:53:17;;;;;;;3.00;0.77;;;19.10;56.10;;;;;;5031344;28;20200;-72
2023/01/31 05:55:44;;;;;;;2.30;0.30;;;19.10;56.80;;;;;;5030644;28;20075;-73
2023/01/31 05:58:11;;;;;;;3.83;1.38;;;19.00;56.20;;;;;;5031419;28;20054;-72
2023/01/31 06:00:38;;;;;;;3.28;0.45;;;19.00;56.20;;;;;;5031445;28;20057;-73
2023/01/31 06:03:05;;;;;;;3.60;0.82;;;18.90;56.20;;;;;;5033088;28;20046;-73
2023/01/31 06:05:32;;;;;;;2.78;0.82;;;18.90;56.20;;;;;;5048568;28;20052;-72
2023/01/31 06:08:00;;;;;;;3.88;0.50;;;18.90;56.30;;;;;;5033434;28;20473;-72
2023/01/31 06:10:27;;;;;;;3.42;1.05;;;18.90;56.30;;;;;;5030878;28;20054;-72
2023/01/31 06:12:54;;;;;;;3.13;1.03;;;18.80;56.40;;;;;;4994106;28;1090225;-72
2023/01/31 06:15:21;;;;;;;2.38;0.93;;;18.80;56.50;;;;;;5036729;28;20052;-73
2023/01/31 06:17:48;;;;;;;4.13;1.13;;;18.70;56.50;;;;;;5048385;28;20048;-72
2023/01/31 06:20:15;;;;;;;2.88;0.85;;;18.70;56.50;;;;;;5051470;28;20057;-72
2023/01/31 06:22:42;;;;;;;2.83;1.05;;;18.60;56.50;;;;;;5048922;28;20132;-72
2023/01/31 06:25:11;;;;;;;2.88;0.70;;;18.60;56.60;;;;;;5040070;28;20615;-73
2023/01/31 06:27:38;;;;;;;2.97;0.90;;;18.60;56.70;;;;;;5052455;28;20045;-72
2023/01/31 06:30:06;;;;;;;1.75;1.05;;;18.50;56.70;;;;;;5047566;28;20132;-73
2023/01/31 06:32:33;;;;;;;3.58;1.42;;;18.50;56.80;;;;;;5032737;28;20049;-72
2023/01/31 06:34:59;;;;;;;2.50;0.68;;;18.40;56.80;;;;;;5031256;28;20494;-73
2023/01/31 06:37:26;;;;;;;2.35;0.90;;;18.40;56.80;;;;;;5031159;28;20050;-72
2023/01/31 06:39:53;;;;;;;2.78;1.42;;;18.40;56.90;;;;;;5032548;28;20053;-72
2023/01/31 06:42:21;;;;;;;3.65;1.35;;;18.40;57.60;;;;;;5031083;28;20061;-72
2023/01/31 06:44:48;;;;;;;4.00;1.15;;;18.30;57.00;;;;;;5048338;28;20056;-72
2023/01/31 06:47:15;;;;;;;3.17;0.57;;;18.30;57.00;;;;;;5052428;28;20123;-72
2023/01/31 06:49:42;;;;;;;3.63;0.40;;;18.30;57.10;;;;;;5050183;28;20052;-72
2023/01/31 06:52:09;;;;;;;2.30;1.00;;;18.30;57.10;;;;;;5033003;28;20056;-72
2023/01/31 06:54:36;;;;;;;2.58;0.82;;;18.20;57.10;;;;;;5030906;28;20064;-73
2023/01/31 06:57:03;;;;;;;2.88;0.85;;;18.20;57.10;;;;;;5031944;28;20057;-72
2023/01/31 06:59:31;;;;;;;2.38;0.80;;;18.20;57.20;;;;;;5044952;28;20063;-73
2023/01/31 07:01:59;;;;;;;3.30;0.98;;;18.20;57.30;;;;;;5052242;28;20040;-72
2023/01/31 07:04:26;;;;;;;5.55;1.00;;;18.20;57.30;;;;;;5050529;28;20045;-72
2023/01/31 07:06:53;;;;;;;2.95;0.98;;;18.10;57.30;;;;;;5033678;28;20048;-73
2023/01/31 07:09:20;;;;;;;4.00;0.88;;;18.10;57.20;;;;;;5031793;28;20186;-72
2023/01/31 07:11:47;;;;;;;4.55;0.95;;;18.10;57.30;;;;;;5030163;28;20049;-71
2023/01/31 07:14:14;;;;;;;3.92;0.80;;;18.10;57.30;;;;;;5032015;28;20133;-72
2023/01/31 07:16:42;;;;;;;2.60;0.95;;;18.00;57.20;;;;;;5047070;28;20059;-72
2023/01/31 07:19:09;;;;;;;3.70;1.23;;;18.10;58.00;;;;;;5038209;28;20046;-72
2023/01/31 07:21:36;;;;;;;3.42;1.17;;;18.10;57.30;;;;;;5030695;28;20060;-72
2023/01/31 07:24:04;;;;;;;2.72;0.88;;;18.10;57.20;;;;;;5037608;28;20098;-72
2023/01/31 07:26:31;;;;;;;4.85;1.20;;;18.20;57.20;;;;;;5050673;28;20075;-72
2023/01/31 07:28:58;;;;;;;4.03;1.00;;;18.20;57.10;;;;;;5047612;28;20052;-73
2023/01/31 07:31:24;;;;;;;4.65;1.00;;;18.20;57.10;;;;;;5051489;28;20060;-73
2023/01/31 07:33:53;;;;;;;2.90;0.75;;;18.30;57.00;;;;;;5051658;28;20431;-72
2023/01/31 07:36:25;;;;;;;2.55;0.65;;;18.40;57.00;;;;;;5033992;28;20050;-72
2023/01/31 07:38:54;;;;;;;3.00;0.60;;;18.40;56.80;;;;;;5030770;28;20454;-72
2023/01/31 07:41:20;;;;;;;3.75;1.08;;;18.50;56.70;;;;;;5031469;28;20049;-72
2023/01/31 07:43:47;;;;;;;3.90;0.82;;;18.50;56.60;;;;;;5030261;28;20120;-72
2023/01/31 07:46:15;;;;;;;2.58;0.93;;;18.60;56.50;;;;;;5044018;28;20041;-72
2023/01/31 07:48:41;;;;;;;2.47;0.93;;;18.70;56.40;;;;;;5041004;28;20163;-72
2023/01/31 07:51:10;;;;;;;3.63;0.90;;;18.80;56.20;;;;;;5035802;28;20041;-73
2023/01/31 07:53:40;;;;;;;4.32;1.10;;;18.80;56.10;;;;;;5051047;28;20544;-72
2023/01/31 07:56:13;;;;;;;3.03;1.08;;;18.90;56.00;;;;;;5049802;28;20059;-73
2023/01/31 07:58:40;;;;;;;2.33;1.10;;;19.00;55.90;;;;;;5047965;28;20045;-73
2023/01/31 08:03:54;;;;;;;4.38;1.25;;;19.10;55.70;;;;;;5043571;28;20135;-72
2023/01/31 08:06:22;;;;;;;4.57;1.00;;;19.20;56.30;;;;;;5031763;28;20053;-72
2023/01/31 08:08:49;;;;;;;3.78;1.15;;;19.30;55.50;;;;;;5039981;28;20088;-72
2023/01/31 08:11:16;;;;;;;2.17;0.30;;;19.30;55.50;;;;;;5051052;28;20053;-73
2023/01/31 08:13:43;;;;;;;4.85;1.05;;;19.30;55.50;;;;;;5050879;28;20053;-72
2023/01/31 08:16:10;;;;;;;3.15;1.20;;;19.30;55.40;;;;;;5049486;28;20521;-72
2023/01/31 08:18:38;;;;;;;4.82;1.35;;;19.30;55.40;;;;;;5041549;28;20053;-72
2023/01/31 08:21:06;;;;;;;3.10;0.38;;;19.30;55.50;;;;;;5029929;28;20764;-73
2023/01/31 08:23:36;;;;;;;2.75;1.05;;;19.30;55.60;;;;;;5031213;28;20128;-72
2023/01/31 08:26:05;;;;;;;5.47;0.50;;;19.20;55.60;;;;;;5031264;28;20046;-72
2023/01/31 08:28:32;;;;;;;4.80;1.42;;;19.20;55.70;;;;;;5031364;28;20049;-73
2023/01/31 08:30:59;;;;;;;3.90;1.25;;;19.10;55.70;;;;;;5030858;28;20072;-73
2023/01/31 08:33:26;;;;;;;4.10;1.05;;;19.10;55.80;;;;;;5035080;28;20056;-72
2023/01/31 08:35:53;;;;;;;4.78;1.75;;;19.10;55.90;;;;;;5043703;28;20061;-72
2023/01/31 08:38:20;;;;;;;2.95;0.88;;;19.00;55.90;;;;;;5050801;28;20045;-72
2023/01/31 08:40:49;;;;;;;3.65;1.13;;;19.00;55.90;;;;;;5049416;28;20053;-73
2023/01/31 08:43:16;;;;;;;3.50;0.47;;;18.90;55.90;;;;;;5038338;28;20041;-72
2023/01/31 08:45:42;;;;;;;4.28;0.57;;;18.90;56.10;;;;;;5030903;28;20262;-72
2023/01/31 08:48:09;;;;;;;3.30;0.50;;;18.90;56.10;;;;;;5036283;28;20406;-72
2023/01/31 08:50:36;;;;;;;3.28;1.33;;;18.90;56.10;;;;;;5033029;28;20054;-72
2023/01/31 08:53:05;;;;;;;4.03;0.45;;;18.80;56.20;;;;;;5033321;28;20053;-72
2023/01/31 08:55:34;;;;;;;4.18;1.00;;;18.70;56.20;;;;;;5034262;28;20144;-72
2023/01/31 08:58:03;;;;;;;4.20;1.48;;;18.80;56.20;;;;;;5039715;28;20041;-72
2023/01/31 09:00:30;;;;;;;3.92;1.13;;;18.70;56.20;;;;;;5033170;28;20049;-72
2023/01/31 09:02:59;;;;;;;3.65;0.73;;;18.70;56.20;;;;;;5034487;28;20049;-72
2023/01/31 09:05:28;;;;;;;4.50;1.55;;;18.70;56.30;;;;;;5034444;28;20053;-72
2023/01/31 09:07:55;;;;;;;;;;;18.70;56.30;;;;;;5033623;28;20068;-71
2023/01/31 09:10:23;;;;;;;3.47;1.00;;;18.70;56.20;;;;;;5033849;28;20404;-72
2023/01/31 09:12:50;;;;;;;3.28;1.10;;;18.70;56.20;;;;;;5047303;28;20057;-72
2023/01/31 09:15:18;;;;;;;4.35;1.00;;;18.70;56.20;;;;;;5054004;28;20053;-72
2023/01/31 09:17:45;;;;;;;4.78;1.00;;;18.70;56.20;;;;;;5052849;28;20048;-71
2023/01/31 09:20:12;;;;;;;3.47;1.10;;;18.80;56.20;;;;;;5049947;28;20049;-72
2023/01/31 09:22:39;;;;;;;3.22;1.33;;;18.80;56.10;;;;;;5033154;28;20053;-73
2023/01/31 09:25:08;;;;;;;3.08;1.00;;;18.90;56.10;;;;;;5033265;28;20049;-73
2023/01/31 09:27:36;;;;;;;4.45;0.90;;;18.90;56.00;;;;;;5039654;28;20491;-71
2023/01/31 09:30:05;;;;;;;4.57;1.10;;;19.00;56.10;;;;;;5037478;28;20095;-72
2023/01/31 09:32:33;;;;;;;3.08;0.98;;;19.00;56.00;;;;;;5041873;28;20045;-73
2023/01/31 09:35:00;;;;;;;2.75;0.98;;;19.10;56.80;;;;;;5037377;28;20049;-73
2023/01/31 09:37:29;;;;;;;3.80;0.93;;;19.20;56.00;;;;;;5041321;28;20525;-72
2023/01/31 09:39:57;;;;;;;4.15;1.67;;;19.20;56.00;;;;;;5045443;28;20049;-72
2023/01/31 09:42:29;;;;;;;2.88;0.98;;;19.30;56.00;;;;;;5032664;28;20052;-73
2023/01/31 09:45:01;;;;;;;2.20;0.93;;;19.40;56.10;;;;;;5044006;28;20120;-73
2023/01/31 09:47:31;;;;;;;1.98;0.77;;;19.40;56.00;;;;;;5035618;28;20159;-71
2023/01/31 09:50:04;;;;;;;4.63;1.15;;;19.50;56.00;;;;;;5037442;28;20057;-71
2023/01/31 09:52:32;;;;;;;4.25;0.93;;;19.60;56.00;;;;;;5036089;28;20053;-70
2023/01/31 09:54:59;;;;;;;4.00;0.80;;;19.60;55.90;;;;;;5050592;28;20049;-71
2023/01/31 09:57:36;;;;;;;4.88;1.65;;;19.70;55.80;;;;;;5046148;28;20042;-71
2023/01/31 10:00:16;;;;;;;4.95;1.00;;;19.80;55.90;;;;;;5035519;28;20442;-71
2023/01/31 10:02:58;;;;;;;4.63;1.73;;;19.90;55.80;;;;;;5038467;28;20045;-71
2023/01/31 10:05:37;;;;;;;6.15;2.63;;;20.00;55.90;;;;;;5036806;28;20042;-73
2023/01/31 10:08:13;;;;;;;5.63;2.13;;;20.00;55.90;;;;;;5036922;28;20052;-73
2023/01/31 10:10:45;;;;;;;7.18;2.70;;;20.20;55.90;;;;;;5036034;28;20045;-72
2023/01/31 10:13:19;;;;;;;7.30;2.67;;;20.20;55.90;;;;;;5034462;28;20060;-72
2023/01/31 10:15:50;;;;;;;11.27;2.88;;;20.30;56.00;;;;;;5031891;28;20128;-72
2023/01/31 10:18:23;;;;;;;6.03;2.45;;;20.30;56.00;;;;;;5040501;28;20048;-71
2023/01/31 10:20:54;;;;;;;7.13;2.50;;;20.30;55.90;;;;;;5039585;28;20053;-70
2023/01/31 10:23:26;;;;;;;4.38;2.22;;;20.40;56.00;;;;;;5031742;28;20065;-71
2023/01/31 10:25:57;;;;;;;7.20;3.00;;;20.50;56.00;;;;;;5042620;28;20060;-70
2023/01/31 10:28:30;;;;;;;6.43;3.08;;;20.50;55.90;;;;;;5037362;28;20042;-70
2023/01/31 10:31:01;;;;;;;7.50;1.95;;;20.50;55.80;;;;;;5041242;28;20254;-70
2023/01/31 10:33:34;;;;;;;7.97;3.10;;;20.50;55.80;;;;;;5034468;28;20041;-73
2023/01/31 10:36:09;;;;;;;7.20;2.90;;;20.60;55.80;;;;;;5048616;28;20131;-71
2023/01/31 10:38:41;;;;;;;6.72;2.80;;;20.60;55.80;;;;;;5034216;28;20053;-69
2023/01/31 10:41:14;;;;;;;6.40;2.72;;;20.60;55.80;;;;;;5041069;28;20046;-69
2023/01/31 10:43:47;;;;;;;6.65;2.20;;;20.60;55.80;;;;;;5046097;28;20049;-70
2023/01/31 10:46:15;;;;;;;5.30;2.00;;;20.70;55.80;;;;;;5042570;28;20045;-71
2023/01/31 10:48:45;;;;;;;5.60;2.30;;;20.70;55.80;;;;;;5043678;28;20059;-71
2023/01/31 10:51:26;;;;;;;5.35;2.13;;;20.70;55.70;;;;;;5034837;28;20509;-72
2023/01/31 10:54:28;;;;;;;7.95;2.63;;;20.80;55.80;;;;;;5042507;28;20064;-70
2023/01/31 10:56:55;;;;;;;5.93;2.00;;;20.80;55.70;;;;;;5034837;28;20049;-72
2023/01/31 10:59:25;;;;;;;5.43;2.25;;;20.80;55.60;;;;;;5034773;28;20037;-69
2023/01/31 11:01:52;;;;;;;7.60;1.67;;;20.80;55.60;;;;;;5033540;28;20441;-70
2023/01/31 11:04:26;;;;;;;5.30;2.55;;;20.90;55.70;;;;;;5039783;28;20049;-69
2023/01/31 11:06:54;;;;;;;6.90;2.08;;;20.90;55.70;;;;;;5039225;28;20045;-70
2023/01/31 11:09:23;;;;;;;4.53;2.03;;;20.90;55.70;;;;;;5040848;28;20513;-73
2023/01/31 11:11:55;;;;;;;4.43;1.30;;;21.00;55.60;;;;;;5035299;28;20468;-70
2023/01/31 11:14:22;;;;;;;6.07;2.20;;;21.00;55.60;;;;;;5044419;28;20053;-71
2023/01/31 11:16:56;;;;;;;5.13;2.22;;;21.00;55.60;;;;;;5045200;28;20064;-70
2023/01/31 11:19:30;;;;;;;5.07;2.13;;;21.00;55.50;;;;;;5049262;28;20052;-71
2023/01/31 11:21:59;;;;;;;5.43;1.70;;;21.10;55.60;;;;;;5045789;28;20508;-71
2023/01/31 11:24:29;;;;;;;4.80;1.65;;;21.00;55.60;;;;;;5029568;28;20061;-72
2023/01/31 11:27:00;;;;;;;6.22;1.50;;;21.00;55.50;;;;;;5041675;28;20421;-69
2023/01/31 11:29:29;;;;;;;3.78;0.95;;;21.00;55.60;;;;;;5047652;28;20041;-71
2023/01/31 11:31:58;;;;;;;3.83;0.90;;;21.00;55.70;;;;;;5039764;28;20391;-71
2023/01/31 11:34:30;;;;;;;6.03;1.98;;;20.90;56.40;;;;;;5047053;28;20064;-70
2023/01/31 11:37:06;;;;;;;5.28;1.10;;;20.90;55.90;;;;;;5041855;28;20052;-69
2023/01/31 11:39:37;;;;;;;5.38;1.05;;;20.80;56.00;;;;;;5040643;28;20045;-70
2023/01/31 11:42:11;;;;;;;4.00;0.55;;;20.80;56.00;;;;;;5038409;28;20129;-69
2023/01/31 11:44:55;;;;;;;4.82;1.75;;;20.70;56.20;;;;;;5031204;28;20128;-69
2023/01/31 11:47:32;;;;;;;4.72;1.70;;;20.60;56.20;;;;;;5043898;28;20095;-70
2023/01/31 11:50:01;;;;;;;3.95;1.40;;;20.60;56.40;;;;;;5038490;28;20098;-71
2023/01/31 11:52:32;;;;;;;4.15;1.58;;;20.50;56.40;;;;;;5032108;28;20056;-69
2023/01/31 11:55:02;;;;;;;4.78;1.55;;;20.50;56.60;;;;;;5034270;28;20624;-68
2023/01/31 11:57:32;;;;;;;4.65;0.75;;;20.40;56.70;;;;;;5040937;28;20045;-69
2023/01/31 12:00:01;;;;;;;6.03;1.65;;;20.30;56.80;;;;;;5043070;28;20042;-72
2023/01/31 12:02:36;;;;;;;3.45;1.45;;;20.20;56.80;;;;;;5031988;28;20057;-72
2023/01/31 12:05:09;;;;;;;5.15;0.82;;;20.20;56.90;;;;;;5032236;28;20056;-71
2023/01/31 12:07:46;;;;;;;3.33;1.48;;;20.10;57.00;;;;;;5033365;28;20056;-72
2023/01/31 12:10:32;;;;;;;3.75;1.50;;;20.10;57.10;;;;;;5028903;28;20041;-72
2023/01/31 12:13:01;;;;;;;4.72;0.95;;;20.00;57.10;;;;;;5047369;28;20060;-71
2023/01/31 12:15:30;;;;;;;3.47;1.55;;;20.00;57.30;;;;;;5030706;28;20052;-72
2023/01/31 12:18:01;;;;;;;4.82;1.58;;;20.00;57.30;;;;;;5040714;28;20126;-72
2023/01/31 12:20:41;;;;;;;3.20;0.70;;;19.90;57.30;;;;;;5035330;28;20380;-72
2023/01/31 12:23:24;;;;;;;3.85;1.67;;;19.80;57.40;;;;;;5029037;28;20072;-73
2023/01/31 12:26:03;;;;;;;3.95;1.48;;;19.90;57.50;;;;;;5038437;28;20060;-72
2023/01/31 12:28:51;;;;;;;5.57;1.48;;;19.80;57.50;;;;;;5042153;28;20045;-72
2023/01/31 12:31:45;;;;;;;3.75;1.45;;;19.80;57.50;;;;;;5038613;28;20079;-72
2023/01/31 12:34:24;;;;;;;4.13;1.58;;;19.80;57.50;;;;;;5038707;28;20160;-72
2023/01/31 12:37:13;;;;;;;3.42;1.35;;;19.80;58.20;;;;;;5042241;28;20084;-73
2023/01/31 12:39:52;;;;;;;4.10;1.65;;;19.90;57.50;;;;;;5042369;28;20046;-73
2023/01/31 12:42:32;;;;;;;3.50;1.42;;;19.90;57.50;;;;;;5031564;28;20041;-73
2023/01/31 12:45:12;;;;;;;3.45;1.65;;;19.90;57.50;;;;;;5039493;28;20049;-72
2023/01/31 12:48:10;;;;;;;4.57;1.45;;;20.00;57.40;;;;;;5040198;28;20045;-72
2023/01/31 12:50:43;;;;;;;3.75;1.58;;;20.00;57.30;;;;;;5034942;28;20068;-72
2023/01/31 12:53:30;;;;;;;4.32;0.95;;;20.10;57.30;;;;;;5034039;28;20132;-73
2023/01/31 12:56:28;;;;;;;2.95;1.38;;;20.10;57.20;;;;;;5042176;28;20056;-73
2023/01/31 12:59:02;;;;;;;4.05;1.58;;;20.20;57.20;;;;;;5044814;28;20060;-72
2023/01/31 13:01:37;;;;;;;2.95;0.70;;;20.30;57.10;;;;;;5048572;28;20049;-73
2023/01/31 13:04:20;;;;;;;4.13;0.77;;;20.30;57.00;;;;;;5039074;28;20045;-73
2023/01/31 13:06:52;;;;;;;4.32;1.42;;;20.40;57.10;;;;;;5035604;28;20156;-72
2023/01/31 13:09:22;;;;;;;1.90;0.28;;;20.50;56.90;;;;;;5038709;28;20041;-72
2023/01/31 13:11:54;;;;;;;2.90;0.40;;;20.60;56.90;;;;;;5037573;28;20045;-72
2023/01/31 13:14:23;;;;;;;4.05;1.33;;;20.60;56.80;;;;;;5037373;28;20053;-73